Time;durP1;ratioP1;P1;durP2;ratioP2;P2;SDS_P1;SDS_P2;PMS_P1;PMS_P2;Temp;Humidity;BMP_temperature;BMP_pressure;BME280_temperature;BME280_humidity;BME280_pressure;Samples;Min_cycle;Max_cycle;Signal;HPM_P1;HPM_P2
2021/06/26 00:01:00;;;;;;;35.25;25.35;;;14.40;99.90;;;;;;4962763;28;20072;-88
2021/06/26 00:03:29;;;;;;;29.10;23.45;;;14.40;99.90;;;;;;4969790;28;20042;-89
2021/06/26 00:05:57;;;;;;;33.28;24.63;;;14.40;99.90;;;;;;4968496;28;20442;-88
2021/06/26 00:08:30;;;;;;;32.25;24.02;;;14.40;99.90;;;;;;4982356;28;20085;-88
2021/06/26 00:10:57;;;;;;;31.38;22.83;;;14.40;99.90;;;;;;4988762;28;20487;-88
2021/06/26 00:13:24;;;;;;;35.50;24.98;;;14.40;99.90;;;;;;4970898;28;20516;-87
2021/06/26 00:15:51;;;;;;;29.75;23.77;;;14.40;99.90;;;;;;4986569;28;20102;-88
2021/06/26 00:18:18;;;;;;;28.80;24.08;;;14.50;99.90;;;;;;4959972;28;20050;-88
2021/06/26 00:20:45;;;;;;;31.83;24.65;;;14.40;99.90;;;;;;4985888;28;20157;-88
2021/06/26 00:23:13;;;;;;;34.20;23.23;;;14.40;99.90;;;;;;4989088;28;20060;-88
2021/06/26 00:25:40;;;;;;;34.35;24.40;;;14.40;99.90;;;;;;4989020;28;20093;-88
2021/06/26 00:28:08;;;;;;;35.20;26.15;;;14.40;99.90;;;;;;4978490;28;20137;-89
2021/06/26 00:30:35;;;;;;;33.25;24.40;;;14.40;99.90;;;;;;4987713;28;20042;-86
2021/06/26 00:33:03;;;;;;;31.25;24.55;;;14.40;99.90;;;;;;4986173;28;20468;-88
2021/06/26 00:35:32;;;;;;;35.67;24.80;;;14.40;99.90;;;;;;4972057;28;20062;-89
2021/06/26 00:38:01;;;;;;;33.13;24.15;;;14.40;99.90;;;;;;4975579;28;20133;-89
2021/06/26 00:40:30;;;;;;;28.00;21.75;;;14.40;99.90;;;;;;4977786;28;20054;-88
2021/06/26 00:43:00;;;;;;;23.60;19.40;;;14.30;99.90;;;;;;4964321;28;20527;-88
2021/06/26 00:45:27;;;;;;;35.13;24.85;;;14.30;99.90;;;;;;4979089;28;20464;-88
2021/06/26 00:47:54;;;;;;;32.47;24.10;;;14.30;99.90;;;;;;4974057;28;20038;-87
2021/06/26 00:50:24;;;;;;;32.70;25.35;;;14.30;99.90;;;;;;4970010;28;20038;-88
2021/06/26 00:52:53;;;;;;;33.10;25.38;;;14.30;99.90;;;;;;4964195;28;20051;-89
2021/06/26 00:55:20;;;;;;;34.47;24.83;;;14.30;99.90;;;;;;4971132;28;20082;-88
2021/06/26 00:58:00;;;;;;;28.00;22.65;;;14.30;99.90;;;;;;4992349;28;20101;-89
2021/06/26 01:00:29;;;;;;;35.67;25.60;;;14.20;99.90;;;;;;4989507;28;20057;-88
2021/06/26 01:03:00;;;;;;;32.30;24.10;;;14.30;99.90;;;;;;4984715;28;20053;-88
2021/06/26 01:05:27;;;;;;;31.40;23.38;;;14.20;99.90;;;;;;4978507;28;20042;-88
2021/06/26 01:07:54;;;;;;;31.92;24.42;;;14.20;99.90;;;;;;4979873;28;20105;-88
2021/06/26 01:10:22;;;;;;;33.88;26.20;;;14.20;99.90;;;;;;4978929;28;20166;-88
2021/06/26 01:12:49;;;;;;;30.73;24.48;;;14.20;99.90;;;;;;4971012;28;20187;-89
2021/06/26 01:15:17;;;;;;;36.70;24.50;;;14.30;99.90;;;;;;4985882;28;20101;-88
2021/06/26 01:17:45;;;;;;;30.25;24.52;;;14.30;99.90;;;;;;4976186;28;20042;-88
2021/06/26 01:20:13;;;;;;;29.73;23.77;;;14.30;99.90;;;;;;4982572;28;20535;-89
2021/06/26 01:22:59;;;;;;;34.67;25.52;;;14.30;99.90;;;;;;4987314;28;20047;-89
2021/06/26 01:25:28;;;;;;;34.58;25.60;;;14.30;99.90;;;;;;4983782;28;20067;-88
2021/06/26 01:27:57;;;;;;;36.67;24.67;;;14.30;99.90;;;;;;4956434;28;20569;-88
2021/06/26 01:30:30;;;;;;;35.08;25.48;;;14.30;99.90;;;;;;4968645;28;20162;-89
2021/06/26 01:33:01;;;;;;;34.92;26.13;;;14.30;99.90;;;;;;4978954;28;20051;-88
2021/06/26 01:35:28;;;;;;;33.50;24.55;;;14.40;99.90;;;;;;4972426;28;20087;-88
2021/06/26 01:38:00;;;;;;;30.58;23.85;;;14.40;99.90;;;;;;4973317;28;20122;-89
2021/06/26 01:40:28;;;;;;;29.73;22.83;;;14.40;99.90;;;;;;4956264;28;20130;-89
2021/06/26 01:42:56;;;;;;;30.02;21.60;;;14.50;99.90;;;;;;4966865;28;20047;-86
2021/06/26 01:45:24;;;;;;;41.50;25.77;;;14.40;99.90;;;;;;4930867;29;20051;-88
2021/06/26 01:47:56;;;;;;;34.75;27.08;;;14.50;99.90;;;;;;4962515;28;20057;-86
2021/06/26 01:50:27;;;;;;;39.75;27.88;;;14.40;99.90;;;;;;4965291;28;20138;-89
2021/06/26 01:52:54;;;;;;;38.15;25.45;;;14.50;99.90;;;;;;4968655;28;20073;-88
2021/06/26 01:55:22;;;;;;;34.78;25.08;;;14.40;99.90;;;;;;4969371;28;20061;-90
2021/06/26 01:57:53;;;;;;;36.85;26.30;;;14.40;99.90;;;;;;4971155;28;20145;-88
2021/06/26 02:00:22;;;;;;;35.85;24.17;;;14.40;99.90;;;;;;4979069;28;20129;-89
2021/06/26 02:02:51;;;;;;;32.30;24.65;;;14.40;99.90;;;;;;4973897;28;20054;-88
2021/06/26 02:05:22;;;;;;;37.97;25.70;;;14.40;99.90;;;;;;4963081;28;20130;-89
2021/06/26 02:07:52;;;;;;;31.75;23.88;;;14.50;99.90;;;;;;4975472;28;20042;-89
2021/06/26 02:10:20;;;;;;;28.63;22.95;;;14.50;99.90;;;;;;4955170;28;20055;-88
2021/06/26 02:12:47;;;;;;;36.03;22.88;;;14.50;99.90;;;;;;4957378;28;20046;-89
2021/06/26 02:15:14;;;;;;;28.23;21.77;;;14.50;99.90;;;;;;4968284;28;20060;-90
2021/06/26 02:17:44;;;;;;;25.13;20.83;;;14.50;99.90;;;;;;4954758;28;20554;-89
2021/06/26 02:20:11;;;;;;;24.85;20.85;;;14.50;99.90;;;;;;4962544;28;20050;-87
2021/06/26 02:22:38;;;;;;;25.08;20.13;;;14.60;99.90;;;;;;4974646;28;20116;-88
2021/06/26 02:25:07;;;;;;;28.95;19.92;;;14.50;99.90;;;;;;4970320;28;20153;-89
2021/06/26 02:27:34;;;;;;;32.83;21.35;;;14.60;99.90;;;;;;4988759;28;20110;-88
2021/06/26 02:30:06;;;;;;;28.40;22.58;;;14.50;99.90;;;;;;4987085;28;20089;-88
2021/06/26 02:32:35;;;;;;;29.88;21.73;;;14.50;99.90;;;;;;4979506;28;20165;-87
2021/06/26 02:35:03;;;;;;;25.13;20.08;;;14.50;99.90;;;;;;4987375;28;20129;-90
2021/06/26 02:37:36;;;;;;;23.75;20.63;;;14.60;99.90;;;;;;4981222;28;20412;-89
2021/06/26 02:40:03;;;;;;;26.75;22.00;;;14.60;99.90;;;;;;4974447;28;20055;-90
2021/06/26 02:42:30;;;;;;;33.08;22.70;;;14.50;99.90;;;;;;4975434;28;20069;-90
2021/06/26 02:45:00;;;;;;;32.35;21.90;;;14.50;99.90;;;;;;4984361;28;20118;-89
2021/06/26 02:47:29;;;;;;;31.95;22.02;;;14.40;99.90;;;;;;4969942;28;20052;-88
2021/06/26 02:49:57;;;;;;;29.55;20.50;;;14.40;99.90;;;;;;4979089;28;20480;-88
2021/06/26 02:52:24;;;;;;;31.25;19.67;;;14.30;99.90;;;;;;4992766;28;20050;-88
2021/06/26 02:54:51;;;;;;;25.30;19.40;;;14.20;99.90;;;;;;4968851;28;20488;-88
2021/06/26 02:57:20;;;;;;;26.35;19.73;;;14.10;99.90;;;;;;4990267;28;20069;-88
2021/06/26 02:59:50;;;;;;;25.13;20.05;;;14.00;99.90;;;;;;4987236;28;20116;-90
2021/06/26 03:02:17;;;;;;;24.65;20.52;;;13.90;99.90;;;;;;4980856;28;20051;-89
2021/06/26 03:04:44;;;;;;;24.55;20.27;;;13.80;99.90;;;;;;4979680;28;20046;-88
2021/06/26 03:07:11;;;;;;;23.52;19.45;;;13.70;99.90;;;;;;4982797;28;20046;-90
2021/06/26 03:09:38;;;;;;;28.95;20.30;;;13.60;99.90;;;;;;4961361;28;20113;-88
2021/06/26 03:12:08;;;;;;;28.30;20.85;;;13.50;99.90;;;;;;4988778;28;20118;-87
2021/06/26 03:14:35;;;;;;;28.05;21.08;;;13.40;99.90;;;;;;4962209;28;20053;-90
2021/06/26 03:17:03;;;;;;;30.42;22.45;;;13.30;99.90;;;;;;4969534;28;20415;-90
2021/06/26 03:19:30;;;;;;;33.30;22.42;;;13.30;99.90;;;;;;4973737;28;20074;-89
2021/06/26 03:21:57;;;;;;;42.35;25.75;;;13.20;99.90;;;;;;4989289;28;20129;-88
2021/06/26 03:24:28;;;;;;;39.42;27.13;;;13.20;99.90;;;;;;4969018;28;20070;-89
2021/06/26 03:26:56;;;;;;;41.42;27.77;;;13.20;99.90;;;;;;4981953;28;20097;-88
2021/06/26 03:29:25;;;;;;;44.20;27.52;;;13.20;99.90;;;;;;4987963;28;20389;-88
2021/06/26 03:31:52;;;;;;;42.42;28.58;;;13.20;99.90;;;;;;4992303;28;20134;-89
2021/06/26 03:34:21;;;;;;;42.17;28.08;;;13.10;99.90;;;;;;4974009;28;20110;-88
2021/06/26 03:36:48;;;;;;;45.88;28.85;;;13.00;99.90;;;;;;4985241;28;20056;-89
2021/06/26 03:39:15;;;;;;;43.53;28.95;;;13.00;99.90;;;;;;4991136;28;20094;-88
2021/06/26 03:41:43;;;;;;;42.35;27.48;;;12.90;99.90;;;;;;4971295;28;20047;-89
2021/06/26 03:44:10;;;;;;;40.67;27.27;;;12.80;99.90;;;;;;4988198;28;20158;-88
2021/06/26 03:46:37;;;;;;;42.38;28.15;;;12.70;99.90;;;;;;4976496;28;20043;-89
2021/06/26 03:49:05;;;;;;;45.20;29.75;;;12.70;99.90;;;;;;4957874;28;20051;-88
2021/06/26 03:51:34;;;;;;;51.33;32.05;;;12.60;99.90;;;;;;4983027;28;20046;-88
2021/06/26 03:54:00;;;;;;;48.45;31.00;;;12.70;99.90;;;;;;4983512;28;20132;-89
2021/06/26 03:56:28;;;;;;;50.90;31.88;;;12.60;99.90;;;;;;4986485;28;20074;-88
2021/06/26 03:58:59;;;;;;;53.63;30.55;;;12.60;99.90;;;;;;4974460;28;20189;-88
2021/06/26 04:01:26;;;;;;;51.07;30.80;;;12.60;99.90;;;;;;4990179;28;20056;-89
2021/06/26 04:03:53;;;;;;;58.53;33.03;;;12.60;99.90;;;;;;4979763;28;20062;-88
2021/06/26 04:06:20;;;;;;;61.30;36.30;;;12.60;99.90;;;;;;4982301;28;20122;-88
2021/06/26 04:08:54;;;;;;;58.25;34.90;;;12.70;99.90;;;;;;4992967;28;20046;-88
2021/06/26 04:11:21;;;;;;;56.13;33.33;;;12.80;99.90;;;;;;4962022;28;20065;-89
2021/06/26 04:13:48;;;;;;;53.75;33.10;;;12.90;99.90;;;;;;4973118;28;20126;-89
2021/06/26 04:16:15;;;;;;;69.35;36.95;;;12.80;99.90;;;;;;4984965;28;20051;-88
2021/06/26 04:18:42;;;;;;;72.03;39.03;;;12.90;99.90;;;;;;4977880;28;20367;-90
2021/06/26 04:21:11;;;;;;;66.63;38.67;;;12.90;99.90;;;;;;4993341;28;20510;-89
2021/06/26 04:23:41;;;;;;;64.07;37.78;;;13.00;99.90;;;;;;4979884;28;20050;-89
2021/06/26 04:26:16;;;;;;;66.20;37.60;;;13.10;99.90;;;;;;4960621;28;20150;-86
2021/06/26 04:28:45;;;;;;;63.95;36.08;;;13.20;99.90;;;;;;4970662;28;20047;-91
2021/06/26 04:31:15;;;;;;;64.53;36.42;;;13.20;99.90;;;;;;4966332;28;20658;-91
2021/06/26 04:33:42;;;;;;;56.97;33.95;;;13.30;99.90;;;;;;4973492;28;20378;-91
2021/06/26 04:36:13;;;;;;;55.20;31.98;;;13.40;99.90;;;;;;4959379;28;20078;-91
2021/06/26 04:38:43;;;;;;;56.47;32.40;;;13.40;99.90;;;;;;4956934;28;20051;-90
2021/06/26 04:41:34;;;;;;;;;;;;;;;;;;;;;
2021/06/26 04:44:04;;;;;;;48.10;32.25;;;13.50;99.90;;;;;;4975769;28;20097;-87
2021/06/26 04:46:35;;;;;;;52.23;31.77;;;13.60;99.90;;;;;;4970885;28;20046;-90
2021/06/26 04:49:02;;;;;;;48.55;32.10;;;13.70;99.90;;;;;;4943503;28;20302;-89
2021/06/26 04:51:32;;;;;;;45.97;28.77;;;13.80;99.90;;;;;;4973241;28;20488;-90
2021/06/26 04:54:01;;;;;;;38.47;27.52;;;13.80;99.90;;;;;;4955960;29;20058;-87
2021/06/26 04:56:28;;;;;;;38.17;25.75;;;13.90;99.90;;;;;;4967956;28;20118;-89
2021/06/26 04:59:00;;;;;;;34.58;25.85;;;14.00;99.90;;;;;;4956613;28;20072;-89
2021/06/26 05:01:27;;;;;;;39.72;27.05;;;14.10;99.90;;;;;;4972261;28;20322;-89
2021/06/26 05:03:54;;;;;;;40.40;24.92;;;14.10;99.90;;;;;;4958715;28;20047;-89
2021/06/26 05:06:22;;;;;;;39.20;26.27;;;14.20;99.90;;;;;;4953948;28;20074;-89
2021/06/26 05:08:49;;;;;;;43.10;29.77;;;14.40;99.90;;;;;;4955907;28;20043;-89
2021/06/26 05:11:28;;;;;;;43.13;27.58;;;14.50;99.90;;;;;;4945009;28;20175;-89
2021/06/26 05:13:54;;;;;;;43.30;30.05;;;14.60;99.90;;;;;;4956272;28;20675;-91
2021/06/26 05:16:22;;;;;;;40.15;24.77;;;14.70;99.90;;;;;;4972225;28;20470;-89
2021/06/26 05:18:49;;;;;;;44.92;29.50;;;14.90;99.90;;;;;;4972517;28;20051;-90
2021/06/26 05:21:15;;;;;;;46.75;28.25;;;15.00;99.90;;;;;;4974100;28;20074;-88
2021/06/26 05:23:42;;;;;;;37.65;27.30;;;15.20;99.90;;;;;;4959130;28;20058;-89
2021/06/26 05:26:11;;;;;;;37.58;27.50;;;15.30;99.90;;;;;;4974737;28;20094;-86
2021/06/26 05:28:39;;;;;;;36.60;26.42;;;15.40;99.90;;;;;;4970932;28;20166;-88
2021/06/26 05:31:06;;;;;;;32.70;24.83;;;15.50;99.90;;;;;;4963900;28;20071;-91
2021/06/26 05:33:33;;;;;;;37.35;26.23;;;15.60;99.90;;;;;;4962167;28;20081;-88
2021/06/26 05:36:05;;;;;;;30.77;24.17;;;15.70;99.90;;;;;;4963033;28;20070;-89
2021/06/26 05:38:31;;;;;;;34.65;26.55;;;15.80;99.90;;;;;;4959108;28;20054;-91
2021/06/26 05:40:58;;;;;;;38.13;24.15;;;15.90;99.90;;;;;;4965079;28;20086;-90
2021/06/26 05:47:31;;;;;;;33.80;23.42;;;16.20;99.90;;;;;;4877230;29;20540;-90
2021/06/26 05:50:16;;;;;;;30.35;21.75;;;16.50;99.90;;;;;;4943743;28;20467;-90
2021/06/26 05:52:56;;;;;;;28.73;21.40;;;16.80;99.90;;;;;;4967207;28;20047;-88
2021/06/26 05:55:25;;;;;;;28.30;20.98;;;17.10;99.90;;;;;;4970091;28;20047;-90
2021/06/26 05:57:56;;;;;;;23.88;19.20;;;17.30;99.90;;;;;;4965948;28;20039;-89
2021/06/26 06:00:24;;;;;;;24.10;19.88;;;17.40;99.90;;;;;;4964564;28;20426;-92
2021/06/26 06:02:51;;;;;;;26.10;20.02;;;17.40;99.90;;;;;;4950241;28;20050;-89
2021/06/26 06:05:17;;;;;;;27.83;19.52;;;17.60;99.90;;;;;;4953154;29;20098;-88
2021/06/26 06:07:45;;;;;;;22.75;18.70;;;17.80;99.90;;;;;;4948942;28;20074;-90
2021/06/26 06:10:14;;;;;;;23.42;18.77;;;18.10;99.90;;;;;;4968780;28;20149;-89
2021/06/26 06:12:43;;;;;;;21.92;17.98;;;18.40;99.90;;;;;;4971216;28;20051;-91
2021/06/26 06:15:12;;;;;;;24.05;18.80;;;18.70;99.90;;;;;;4968713;28;20051;-89
2021/06/26 06:17:39;;;;;;;20.02;17.92;;;18.80;99.90;;;;;;4966248;28;20044;-89
2021/06/26 06:20:09;;;;;;;21.73;16.70;;;19.10;99.90;;;;;;4954236;28;20133;-90
2021/06/26 06:22:36;;;;;;;24.67;19.17;;;19.40;99.90;;;;;;4954586;28;20055;-89
2021/06/26 06:25:09;;;;;;;23.10;18.38;;;19.40;99.90;;;;;;4971612;28;20068;-90
2021/06/26 06:27:40;;;;;;;23.67;18.35;;;19.40;99.90;;;;;;4977738;28;20042;-92
2021/06/26 06:30:08;;;;;;;22.60;18.50;;;19.50;99.90;;;;;;4973556;28;20066;-90
2021/06/26 06:32:36;;;;;;;19.65;17.33;;;19.70;99.90;;;;;;4981766;28;20134;-90
2021/06/26 06:35:05;;;;;;;20.33;18.05;;;19.80;99.90;;;;;;4982141;28;20051;-89
2021/06/26 06:37:32;;;;;;;20.40;17.58;;;20.00;99.90;;;;;;4970382;28;20151;-88
2021/06/26 06:39:59;;;;;;;21.25;17.85;;;20.30;99.90;;;;;;4973409;28;20050;-89
2021/06/26 06:42:26;;;;;;;24.63;18.92;;;20.30;99.90;;;;;;4987835;28;20136;-88
2021/06/26 06:44:54;;;;;;;25.40;19.77;;;20.30;99.90;;;;;;4983535;28;20133;-89
2021/06/26 06:47:21;;;;;;;23.80;19.92;;;20.30;99.90;;;;;;4975790;28;20367;-90
2021/06/26 06:49:47;;;;;;;20.98;18.75;;;20.30;99.90;;;;;;4992884;28;20446;-86
2021/06/26 06:52:14;;;;;;;23.60;20.60;;;20.60;99.90;;;;;;4973035;28;20397;-86
2021/06/26 06:54:44;;;;;;;22.98;18.75;;;20.40;99.90;;;;;;4985265;28;20115;-85
2021/06/26 06:57:20;;;;;;;23.38;19.02;;;20.60;99.90;;;;;;4954097;28;20441;-87
2021/06/26 06:59:47;;;;;;;21.70;18.00;;;20.70;99.90;;;;;;4976902;28;20055;-88
2021/06/26 07:02:14;;;;;;;23.05;18.48;;;21.00;99.90;;;;;;4983515;28;20057;-86
2021/06/26 07:04:49;;;;;;;19.70;17.60;;;21.20;99.90;;;;;;4972379;28;20142;-89
2021/06/26 07:07:25;;;;;;;21.55;18.52;;;21.40;99.90;;;;;;4988568;28;20039;-89
2021/06/26 07:09:55;;;;;;;20.20;17.05;;;21.60;99.90;;;;;;4958360;28;20082;-86
2021/06/26 07:12:23;;;;;;;21.30;17.00;;;21.90;99.90;;;;;;4972825;28;20161;-87
2021/06/26 07:14:50;;;;;;;21.63;16.70;;;22.00;99.90;;;;;;4975848;28;20046;-87
2021/06/26 07:17:16;;;;;;;20.20;17.80;;;21.70;99.90;;;;;;4978773;28;20050;-87
2021/06/26 07:19:43;;;;;;;22.85;16.67;;;21.80;99.90;;;;;;4959162;28;20054;-87
2021/06/26 07:22:10;;;;;;;21.83;18.25;;;22.10;99.90;;;;;;4992178;28;20144;-88
2021/06/26 07:24:37;;;;;;;22.98;16.20;;;21.90;99.90;;;;;;4967492;28;20451;-86
2021/06/26 07:27:05;;;;;;;20.23;16.85;;;21.90;99.90;;;;;;4992319;28;20268;-87
2021/06/26 07:29:32;;;;;;;18.00;15.32;;;21.70;99.90;;;;;;4974996;28;20046;-88
2021/06/26 07:31:59;;;;;;;20.42;15.15;;;22.30;99.90;;;;;;4986922;28;20070;-89
2021/06/26 07:34:25;;;;;;;17.98;14.63;;;22.70;99.90;;;;;;4987694;28;20785;-88
2021/06/26 07:36:52;;;;;;;18.08;12.63;;;23.30;99.90;;;;;;4980271;28;20418;-88
2021/06/26 07:39:19;;;;;;;14.00;12.50;;;24.20;99.90;;;;;;4974404;28;20109;-87
2021/06/26 07:41:46;;;;;;;15.13;13.57;;;24.50;99.90;;;;;;4993942;28;20093;-88
2021/06/26 07:44:13;;;;;;;14.30;11.48;;;24.40;99.90;;;;;;4990143;28;20076;-89
2021/06/26 07:46:40;;;;;;;15.07;13.15;;;24.20;99.90;;;;;;4983071;28;20050;-86
2021/06/26 07:49:08;;;;;;;13.48;12.13;;;24.10;99.90;;;;;;4984678;28;20070;-88
2021/06/26 07:51:35;;;;;;;14.70;13.27;;;23.80;99.90;;;;;;4981776;28;20046;-86
2021/06/26 07:54:02;;;;;;;12.63;11.18;;;23.50;99.90;;;;;;4991435;28;20448;-90
2021/06/26 07:56:30;;;;;;;13.75;12.38;;;23.70;99.90;;;;;;4983088;28;20042;-87
2021/06/26 07:58:59;;;;;;;16.88;12.40;;;23.80;99.90;;;;;;4951578;28;20078;-89
2021/06/26 08:01:27;;;;;;;14.30;12.85;;;23.90;99.90;;;;;;4988431;28;20125;-88
2021/06/26 08:03:54;;;;;;;15.95;14.35;;;23.90;99.80;;;;;;4984187;28;20513;-88
2021/06/26 08:06:21;;;;;;;15.13;13.48;;;23.60;99.00;;;;;;4981304;28;21412;-90
2021/06/26 08:08:50;;;;;;;13.50;11.68;;;23.60;99.90;;;;;;4981092;28;20170;-88
2021/06/26 08:11:17;;;;;;;12.50;11.15;;;24.10;99.90;;;;;;4977813;28;20206;-89
2021/06/26 08:13:44;;;;;;;12.43;11.13;;;24.30;96.90;;;;;;4986411;28;20138;-88
2021/06/26 08:16:15;;;;;;;12.80;11.45;;;24.70;95.90;;;;;;4978227;28;20055;-89
2021/06/26 08:18:42;;;;;;;13.10;11.65;;;24.70;95.10;;;;;;4987029;28;20046;-88
2021/06/26 08:21:09;;;;;;;11.43;10.23;;;24.30;95.80;;;;;;4963357;28;20050;-87
2021/06/26 08:23:36;;;;;;;11.52;10.32;;;24.50;98.30;;;;;;4988574;28;20133;-88
2021/06/26 08:26:03;;;;;;;14.27;11.05;;;24.80;95.40;;;;;;4968460;28;20090;-86
2021/06/26 08:28:30;;;;;;;12.68;10.32;;;24.50;93.90;;;;;;4969270;28;20082;-88
2021/06/26 08:30:57;;;;;;;11.43;10.13;;;24.50;93.20;;;;;;4952977;28;20387;-87
2021/06/26 08:33:24;;;;;;;10.70;9.70;;;24.50;95.10;;;;;;4962737;28;20439;-87
2021/06/26 08:35:50;;;;;;;11.40;10.30;;;24.40;94.90;;;;;;4952266;28;20142;-88
2021/06/26 08:38:17;;;;;;;12.55;10.35;;;24.40;92.80;;;;;;4954255;28;20130;-87
2021/06/26 08:40:48;;;;;;;11.43;10.25;;;24.70;92.80;;;;;;4965017;28;20057;-86
2021/06/26 08:43:15;;;;;;;14.10;10.10;;;24.40;92.90;;;;;;4956809;28;20082;-89
2021/06/26 08:45:43;;;;;;;13.25;11.93;;;24.10;93.20;;;;;;4975000;28;20337;-88
2021/06/26 08:48:10;;;;;;;11.25;10.15;;;24.70;93.80;;;;;;4974402;28;20074;-88
2021/06/26 08:50:42;;;;;;;11.73;9.40;;;25.10;91.20;;;;;;4954848;28;20122;-86
2021/06/26 08:53:09;;;;;;;;;;;25.20;91.00;;;;;;4958378;28;20053;-87
2021/06/26 08:55:38;;;;;;;10.02;8.75;;;25.30;90.80;;;;;;4963346;28;20002;-88
2021/06/26 08:58:05;;;;;;;10.93;9.45;;;25.50;90.50;;;;;;4925036;28;20050;-87
2021/06/26 09:00:32;;;;;;;9.52;8.52;;;25.60;88.30;;;;;;4966209;28;20403;-87
2021/06/26 09:03:12;;;;;;;9.23;8.20;;;25.90;88.30;;;;;;4958967;28;20058;-90
2021/06/26 09:05:41;;;;;;;10.88;8.73;;;26.10;84.40;;;;;;4956067;28;20048;-89
2021/06/26 09:08:15;;;;;;;11.05;7.47;;;25.90;85.60;;;;;;4966044;28;20050;-88
2021/06/26 09:10:47;;;;;;;10.57;9.40;;;26.00;85.50;;;;;;4959699;28;20043;-88
2021/06/26 09:13:28;;;;;;;11.38;9.77;;;25.80;81.40;;;;;;4966223;28;20472;-87
2021/06/26 09:16:32;;;;;;;8.85;8.02;;;25.50;82.10;;;;;;4947166;29;20115;-87
2021/06/26 09:19:01;;;;;;;9.77;8.85;;;25.40;89.70;;;;;;4923448;28;20326;-88
2021/06/26 09:21:33;;;;;;;9.30;8.32;;;25.40;86.20;;;;;;4958515;28;20134;-90
2021/06/26 09:24:05;;;;;;;10.50;8.65;;;25.90;85.60;;;;;;4958522;28;20079;-88
2021/06/26 09:26:36;;;;;;;10.52;8.23;;;26.60;80.70;;;;;;4978253;28;20058;-89
2021/06/26 09:29:17;;;;;;;7.95;7.10;;;26.70;80.30;;;;;;4993538;28;20074;-87
2021/06/26 09:31:56;;;;;;;9.18;8.38;;;27.60;77.30;;;;;;4990866;28;20473;-86
2021/06/26 09:34:44;;;;;;;7.53;6.82;;;27.70;74.10;;;;;;4987428;28;20047;-87
2021/06/26 09:37:13;;;;;;;8.50;6.78;;;28.50;74.60;;;;;;4987674;28;20070;-87
2021/06/26 09:39:42;;;;;;;9.05;7.80;;;29.00;68.10;;;;;;4989536;28;20496;-87
2021/06/26 09:42:23;;;;;;;7.68;6.90;;;28.90;64.70;;;;;;4981773;28;20082;-87
2021/06/26 09:44:56;;;;;;;;;;;28.80;66.90;;;;;;4994299;28;20046;-86
2021/06/26 09:47:28;;;;;;;;;;;29.60;65.50;;;;;;4993955;28;19961;-88
2021/06/26 09:50:17;;;;;;;7.20;5.55;;;29.70;63.30;;;;;;4977937;28;19949;-87
2021/06/26 09:53:00;;;;;;;8.85;5.88;;;29.40;62.00;;;;;;4974967;28;20078;-90
2021/06/26 09:55:36;;;;;;;8.30;7.35;;;29.30;62.50;;;;;;4992591;28;20412;-87
2021/06/26 09:58:12;;;;;;;7.70;5.88;;;28.80;61.20;;;;;;4976148;28;20043;-88
2021/06/26 10:00:41;;;;;;;5.30;4.78;;;28.70;59.80;;;;;;4964746;28;20049;-87
2021/06/26 10:03:09;;;;;;;6.38;5.78;;;29.00;64.40;;;;;;4976442;28;20070;-88
2021/06/26 10:05:37;;;;;;;5.53;4.82;;;29.00;63.30;;;;;;4983611;28;20049;-88
2021/06/26 10:08:06;;;;;;;5.75;4.60;;;29.20;58.80;;;;;;4990519;28;20053;-90
2021/06/26 10:10:35;;;;;;;5.75;5.25;;;29.20;63.40;;;;;;4993744;28;20137;-87
2021/06/26 10:13:04;;;;;;;7.15;6.45;;;29.50;60.60;;;;;;4991340;28;20046;-87
2021/06/26 10:15:32;;;;;;;7.68;6.97;;;28.40;61.80;;;;;;4973905;28;20133;-89
2021/06/26 10:18:00;;;;;;;6.95;5.80;;;27.30;63.20;;;;;;4970003;28;20108;-91
2021/06/26 10:20:27;;;;;;;6.55;5.57;;;27.20;66.20;;;;;;4983298;28;20141;-87
2021/06/26 10:23:01;;;;;;;6.85;5.90;;;27.80;70.00;;;;;;4987339;28;20035;-87
2021/06/26 10:25:39;;;;;;;6.20;5.53;;;28.80;64.90;;;;;;4992119;28;20141;-92
2021/06/26 10:28:17;;;;;;;6.10;5.50;;;30.00;62.80;;;;;;4972175;28;20145;-88
2021/06/26 10:30:58;;;;;;;6.22;5.63;;;30.30;57.10;;;;;;4984277;28;20125;-88
2021/06/26 10:33:32;;;;;;;5.38;4.88;;;30.10;59.00;;;;;;4986448;28;20129;-92
2021/06/26 10:36:05;;;;;;;6.47;5.15;;;30.60;58.10;;;;;;4986980;28;20068;-88
2021/06/26 10:38:43;;;;;;;9.20;5.50;;;30.40;57.20;;;;;;4989404;28;20120;-88
2021/06/26 10:41:21;;;;;;;7.47;6.72;;;29.90;56.60;;;;;;4991250;28;20054;-90
2021/06/26 10:43:59;;;;;;;7.03;6.35;;;29.30;57.80;;;;;;4974788;28;20117;-87
2021/06/26 10:46:26;;;;;;;7.30;5.38;;;28.90;60.20;;;;;;4986411;28;20359;-88
2021/06/26 10:48:55;;;;;;;7.05;4.93;;;28.90;60.40;;;;;;4974029;28;20042;-89
2021/06/26 10:51:39;;;;;;;7.47;5.43;;;28.90;59.50;;;;;;4984993;28;20493;-87
2021/06/26 10:54:18;;;;;;;6.60;5.40;;;29.20;59.20;;;;;;4986877;28;20047;-87
2021/06/26 10:56:52;;;;;;;6.03;5.10;;;29.60;55.90;;;;;;4980079;28;20112;-88
2021/06/26 10:59:22;;;;;;;7.38;5.72;;;28.70;59.10;;;;;;4967591;28;20069;-88
2021/06/26 11:01:56;;;;;;;5.30;4.80;;;27.30;60.00;;;;;;4985164;28;20050;-89
2021/06/26 11:04:33;;;;;;;6.43;5.80;;;26.70;64.20;;;;;;4989738;28;20126;-90
2021/06/26 11:07:08;;;;;;;5.85;5.35;;;26.90;65.00;;;;;;4973428;28;20050;-88
2021/06/26 11:09:46;;;;;;;5.70;5.20;;;27.30;64.30;;;;;;4980834;28;20371;-86
2021/06/26 11:12:19;;;;;;;6.07;5.50;;;27.60;59.20;;;;;;4970835;28;20065;-88
2021/06/26 11:14:50;;;;;;;4.97;4.47;;;27.20;64.70;;;;;;4990040;28;20389;-92
2021/06/26 11:17:17;;;;;;;5.47;4.97;;;26.80;64.20;;;;;;4980013;28;20109;-89
2021/06/26 11:19:55;;;;;;;5.03;4.63;;;26.90;69.10;;;;;;4966688;28;20046;-90
2021/06/26 11:22:22;;;;;;;6.45;4.93;;;28.10;68.90;;;;;;4971533;28;20110;-86
2021/06/26 11:25:04;;;;;;;5.00;4.50;;;29.80;63.40;;;;;;4974979;28;20069;-91
2021/06/26 11:27:33;;;;;;;4.45;4.05;;;31.20;57.90;;;;;;4975144;28;20056;-90
2021/06/26 11:30:06;;;;;;;6.60;5.35;;;31.60;58.10;;;;;;4974959;28;20096;-87
2021/06/26 11:32:33;;;;;;;4.78;3.25;;;32.00;52.90;;;;;;4991502;28;20118;-88
2021/06/26 11:35:13;;;;;;;4.40;4.00;;;32.70;52.50;;;;;;4968523;28;20481;-88
2021/06/26 11:37:45;;;;;;;3.90;3.50;;;32.60;49.80;;;;;;4965840;28;20133;-86
2021/06/26 11:40:15;;;;;;;4.55;3.85;;;33.00;47.10;;;;;;4988233;28;20457;-87
2021/06/26 11:42:53;;;;;;;3.83;3.50;;;32.40;48.20;;;;;;4981588;28;20121;-87
2021/06/26 11:45:23;;;;;;;4.13;3.63;;;32.30;49.40;;;;;;4988792;28;20054;-89
2021/06/26 11:48:05;;;;;;;5.10;4.00;;;32.50;50.50;;;;;;4985241;28;20100;-89
2021/06/26 11:50:35;;;;;;;8.60;6.85;;;32.00;50.50;;;;;;4984513;28;20481;-85
2021/06/26 11:53:13;;;;;;;5.10;4.70;;;31.10;52.10;;;;;;4970512;28;20072;-87
2021/06/26 11:56:04;;;;;;;4.72;4.00;;;29.60;53.80;;;;;;4985947;28;20088;-86
2021/06/26 11:58:52;;;;;;;8.48;4.65;;;28.70;56.40;;;;;;4986038;28;20125;-86
2021/06/26 12:01:36;;;;;;;4.95;4.45;;;28.70;57.10;;;;;;4982971;28;20102;-88
2021/06/26 12:04:06;;;;;;;4.90;4.20;;;29.10;57.70;;;;;;4985445;28;20104;-88
2021/06/26 12:06:34;;;;;;;5.18;4.40;;;28.80;57.30;;;;;;4983402;28;20064;-87
2021/06/26 12:09:06;;;;;;;5.60;4.88;;;29.30;57.50;;;;;;4992749;28;20501;-90
2021/06/26 12:11:39;;;;;;;3.80;3.05;;;30.30;56.40;;;;;;4973779;28;20657;-86
2021/06/26 12:14:06;;;;;;;3.25;2.95;;;31.70;52.50;;;;;;4986580;28;20139;-90
2021/06/26 12:16:36;;;;;;;4.72;3.30;;;32.30;50.40;;;;;;4984034;28;20055;-86
2021/06/26 12:19:06;;;;;;;3.85;3.55;;;32.10;52.10;;;;;;4985076;28;20100;-86
2021/06/26 12:21:39;;;;;;;6.38;4.32;;;32.60;49.20;;;;;;4966734;28;20085;-87
2021/06/26 12:24:07;;;;;;;4.93;3.15;;;32.60;48.00;;;;;;4991666;28;20073;-90
2021/06/26 12:26:34;;;;;;;4.28;3.92;;;32.50;48.60;;;;;;4968628;28;20082;-88
2021/06/26 12:29:01;;;;;;;4.22;3.83;;;32.40;48.40;;;;;;4994507;28;20069;-91
2021/06/26 12:31:42;;;;;;;4.45;4.05;;;31.90;51.20;;;;;;4989934;28;20054;-88
2021/06/26 12:34:15;;;;;;;4.13;3.80;;;32.00;49.80;;;;;;4994579;28;20054;-89
2021/06/26 12:36:58;;;;;;;3.45;3.15;;;30.90;49.90;;;;;;4991245;28;20050;-87
2021/06/26 12:39:35;;;;;;;3.92;3.50;;;30.50;53.00;;;;;;4991291;28;20197;-90
2021/06/26 12:42:09;;;;;;;3.33;3.03;;;31.20;54.60;;;;;;4974331;28;20086;-86
2021/06/26 12:44:42;;;;;;;3.25;2.75;;;31.80;49.20;;;;;;4988992;28;20175;-87
2021/06/26 12:47:12;;;;;;;4.43;2.90;;;32.90;49.00;;;;;;4987053;28;20089;-89
2021/06/26 12:49:41;;;;;;;3.30;3.05;;;34.00;44.90;;;;;;4985819;28;20082;-88
2021/06/26 12:52:15;;;;;;;3.28;3.05;;;34.20;43.80;;;;;;4966101;28;20082;-88
2021/06/26 12:54:53;;;;;;;3.05;2.60;;;33.90;45.10;;;;;;4973634;28;20541;-86